Weather observations for the past three days for
Cambridge Municipal Airport
Metric (Imperial)
Date Time (cdt) Wind (kph) Vis. (km) Weather Sky Cond. Temperature (ºC) Relative Humidity Wind Chill (°C) Heat Index (°C) Pressure Precipitation (cm)
Air Dwpt 6 hour altimeter (cm) sea level (mb) 1 hr 3 hr 6 hr
Max. Min.
05 07:55 Calm 16.09 Fair CLR 20 18 88% 76 0.0
05 07:35 Calm 16.09 Fair CLR 20 18 88% 75.97 0.0
05 07:15 W 6 16.09 Fair CLR 21 18 83% 75.97 0.0
05 06:55 NW 6 16.09 Fair CLR 21 18 83% 75.97 0.0
05 06:35 W 7 16.09 Fair CLR 21 18 83% 75.95 0.0
05 06:15 NW 11 16.09 Fair CLR 20 18 88% 75.97 0.0
05 05:55 W 7 16.09 Fair CLR 21 18 83% 75.97 0.0
05 05:35 W 6 16.09 Fair CLR 22 18 78% 75.97 0.0
05 05:15 Calm 16.09 Fair CLR 23 18 74% 75.97 0.0
05 04:55 S 7 16.09 Fair CLR 24 18 69% 25 75.97 0.0
05 04:35 Calm 16.09 Fair CLR 24 18 69% 25 76 0.0
05 04:15 S 9 16.09 Fair CLR 24 18 69% 25 76 0.0
05 03:55 SE 7 16.09 Fair CLR 25 18 65% 26 75.97 0.0
05 03:35 S 11 16.09 Fair CLR 25 18 65% 26 76 0.0
05 03:15 S 7 16.09 Fair CLR 25 18 65% 26 75.97 0.0
05 02:55 S 7 16.09 Fair CLR 25 18 65% 26 76 0.0
05 02:35 SE 11 16.09 Fair CLR 26 18 61% 27 76 0.0
05 02:15 E 13 16.09 Fair CLR 25 18 65% 26 76 0.0
05 01:55 SE 13 16.09 Fair CLR 25 18 65% 26 75.97 0.0
05 01:35 E 13 16.09 Fair CLR 25 18 65% 26 76 0.0
05 01:15 SE 11 16.09 Fair CLR 26 18 61% 27 76 0.0
05 00:55 SE 9 16.09 Fair CLR 26 18 61% 27 75.97 0.0
05 00:35 SE 9 16.09 Fair CLR 26 18 61% 27 75.97 0.0
05 00:15 SE 13 16.09 Fair CLR 27 18 58% 28 75.97 0.0
04 23:55 SE 11 16.09 Fair CLR 28 17 51% 29 75.97 0.0
04 23:35 SE 11 16.09 Fair CLR 28 17 51% 29 75.97 0.0
04 23:15 E 9 16.09 Fair CLR 29 18 51% 30 75.97 0.0
04 22:55 SE 11 16.09 Fair CLR 28 18 55% 29 75.95 0.0
04 22:35 E 9 16.09 Fair CLR 29 18 51% 30 75.95 0.0
04 22:15 SE 11 16.09 Fair CLR 29 18 51% 30 75.92 0.0
04 21:55 E 13 16.09 Fair CLR 30 19 52% 31 75.92 0.0
04 21:35 SE 13 16.09 Fair CLR 29 19 55% 30 75.9 0.0
04 21:15 E 13 16.09 Fair CLR 29 19 55% 30 75.87 0.0
04 20:55 SE 13 16.09 Fair CLR 29 19 55% 30 75.84 0.0
04 20:35 E 15 16.09 Fair CLR 29 19 55% 30 75.84 0.0
04 20:15 E 17 16.09 Fair CLR 30 19 52% 31 75.84 0.0
04 19:55 E 19 14.48 Fair CLR 30 19 52% 31 75.84 0.0
04 19:35 E 22 16.09 Fair CLR 31 17 43% 31 75.84 0.0
04 19:15 E 20 G 31 16.09 Fair CLR 31 16 40% 31 75.82 0.0
04 18:55 SE 22 G 41 16.09 Fair CLR 31 15 38% 31 75.82 0.0
04 18:35 SE 24 G 41 16.09 Fair CLR 33 18 41% 34 75.82 0.0
04 18:15 SE 24 16.09 Thunderstorm in Vicinity CLR 36 19 37% 38 75.79 0.0
04 17:35 SE 17 G 26 16.09 Fair CLR 37 20 37% 40 75.79 0.0
04 17:15 SE 19 G 33 16.09 Fair CLR 36 20 39% 39 75.79 0.0
04 16:55 SE 19 14.48 Fair CLR 36 20 39% 39 75.82 0.0
04 16:35 SE 17 16.09 Fair CLR 35 20 41% 38 75.82 0.0
04 16:15 SE 17 G 30 16.09 Fair CLR 35 20 41% 38 75.82 0.0
04 15:55 SE 24 16.09 Fair CLR 36 21 42% 40 75.82 0.0
04 15:35 SE 24 G 35 16.09 Fair CLR 36 20 39% 39 75.84 0.0
04 15:15 SE 26 G 41 16.09 Fair CLR 35 22 47% 39 75.84 0.0
04 14:55 E 26 G 37 16.09 Fair CLR 33 23 56% 38 75.82 0.0
04 14:35 E 26 16.09 Fair CLR 32 22 55% 36 75.84 0.0
04 14:15 E 24 16.09 Fair CLR 32 22 55% 36 75.87 0.0
04 13:55 SE 20 16.09 Fair CLR 32 21 52% 35 75.92 0.0
04 13:35 SE 19 16.09 Fair CLR 31 22 59% 35 75.92 0.0
04 13:10 SE 17 G 26 16.09 Fair CLR 29 22 66% 32 75.95 0.0
04 12:55 SE 13 G 22 16.09 Fair CLR 28 22 70% 31 75.95 0.0
04 12:35 Vrbl 9 16.09 Fair CLR 28 22 70% 31 75.97 0.0
04 12:15 SE 11 16.09 Fair CLR 27 21 70% 29 75.97 0.0
04 11:55 SE 9 16.09 Fair CLR 27 21 70% 29 75.97 0.0
04 11:35 SE 11 16.09 Fair CLR 27 21 70% 29 75.97 0.0
04 11:15 SE 13 16.09 Fair CLR 27 21 70% 29 75.97 0.0
04 10:55 Calm 16.09 Fair CLR 26 21 74% 27 75.97 0.0 0.1
04 10:35 S 9 16.09 Fair CLR 25 21 79% 26 75.95 0.0
04 10:15 NW 15 8.05 Light Rain Fog/Mist FEW047 FEW055 SCT075 23 21 89% 75.95 0.0
04 09:55 E 11 9.66 Thunderstorm Light Rain Fog/Mist FEW055 FEW065 SCT075 22 21 94% 75.92 0.0 0.03
04 09:35 Calm 14.48 Light Rain CLR 23 20 83% 75.95 0.0
04 09:15 Calm 14.48 Fair CLR 23 20 83% 75.95 0.0
04 08:55 E 7 16.09 Fair CLR 23 19 78% 75.92 0.0
04 08:35 E 11 12.87 Fair CLR 22 19 83% 75.92 0.0
04 08:15 E 11 16.09 Fair CLR 22 19 83% 75.92 0.0
04 07:55 E 11 14.48 Fair CLR 22 19 83% 75.9 0.0
04 07:35 E 9 14.48 Fair CLR 21 19 88% 75.9 0.0
04 07:15 E 11 16.09 Fair CLR 20 18 88% 75.9 0.0
04 06:55 E 7 16.09 Fair CLR 20 18 88% 75.87 0.0
04 06:35 NE 7 16.09 Fair CLR 20 18 88% 75.87 0.0
04 06:15 E 7 16.09 Fair CLR 20 18 88% 75.87 0.0
04 05:55 NE 7 14.48 Fair CLR 20 18 88% 75.87 0.0
04 05:35 E 7 16.09 Fair CLR 20 18 88% 75.87 0.0
04 05:15 E 7 16.09 Fair CLR 20 18 88% 75.87 0.0
04 04:55 E 7 16.09 Fair CLR 21 18 83% 75.84 0.0
04 04:35 SE 9 16.09 Fair CLR 21 18 83% 75.84 0.0
04 04:15 E 9 16.09 Fair CLR 21 18 83% 75.82 0.0
04 03:55 E 9 16.09 Fair CLR 21 18 83% 75.82 0.0
04 03:35 E 9 16.09 Fair CLR 21 18 83% 75.82 0.0
04 03:15 E 11 16.09 Fair CLR 21 18 83% 75.82 0.0
04 02:55 NE 13 16.09 Fair CLR 21 19 88% 75.82 0.0
04 02:35 E 11 16.09 Fair CLR 21 18 83% 75.84 0.0
04 02:15 E 9 16.09 Fair CLR 21 18 83% 75.84 0.0
04 01:55 E 9 16.09 Fair CLR 21 18 83% 75.84 0.0
04 01:35 E 9 16.09 Fair CLR 19 17 88% 75.87 0.0
04 01:15 SE 9 16.09 Fair CLR 20 17 83% 75.87 0.0
04 00:55 Vrbl 9 G 33 16.09 Fair CLR 21 17 78% 75.87 0.0
04 00:35 NE 9 16.09 Fair CLR 22 17 73% 75.82 0.0
04 00:10 Calm 16.09 Fair CLR 21 17 78% 75.82 0.0
03 23:55 Calm 16.09 Fair CLR 22 17 73% 75.82 0.0
03 23:35 Calm 16.09 Fair CLR 22 17 73% 75.82 0.0
03 23:15 Calm 16.09 Fair CLR 24 17 65% 25 75.84 0.0
03 22:55 N 15 16.09 Fair CLR 25 17 61% 26 75.82 0.0
03 22:35 N 13 16.09 Fair CLR 25 17 61% 26 75.84 0.0
03 22:15 N 13 16.09 Fair CLR 25 17 61% 26 75.82 0.0
03 21:55 NW 7 16.09 Fair CLR 26 17 58% 27 75.82 0.0
03 21:35 N 11 16.09 Fair CLR 27 17 54% 28 75.79 0.0
03 21:15 N 15 16.09 Fair CLR 27 17 54% 28 75.79 0.0
03 20:55 N 15 16.09 Fair CLR 28 16 48% 28 75.79 0.0
03 20:35 N 15 16.09 Fair CLR 29 16 45% 29 75.77 0.0
03 20:15 N 13 16.09 Fair CLR 29 16 45% 29 75.74 0.0
03 19:55 N 11 16.09 Fair CLR 30 16 43% 30 75.72 0.0
03 19:35 N 9 16.09 Fair CLR 32 16 38% 32 75.72 0.0
03 19:15 N 11 16.09 Fair CLR 33 15 34% 33 75.72 0.0
03 18:55 N 13 G 22 16.09 Fair CLR 34 14 30% 33 75.72 0.0
03 18:35 Vrbl 9 16.09 Fair CLR 34 15 32% 34 75.69 0.0
03 18:15 Vrbl 9 16.09 Fair CLR 35 17 34% 36 75.69 0.0
03 17:55 Calm 16.09 Fair CLR 34 17 36% 35 75.69 0.0
03 17:35 Vrbl 7 16.09 Fair CLR 35 17 34% 36 75.67 0.0
03 16:55 NW 15 16.09 Fair CLR 35 17 34% 36 75.69 0.0
03 16:35 N 13 16.09 Fair CLR 34 18 39% 35 75.67 0.0
03 16:15 W 11 16.09 Fair CLR 34 18 39% 35 75.69 0.0
03 15:55 W 15 16.09 Fair CLR 34 18 39% 35 75.69 0.0
03 15:35 Vrbl 11 16.09 Fair CLR 34 17 36% 35 75.69 0.0
03 15:15 Vrbl 7 16.09 Fair CLR 33 17 38% 33 75.69 0.0
03 14:55 W 9 16.09 Fair CLR 33 17 38% 33 75.69 0.0
03 14:35 Vrbl 6 16.09 Fair CLR 33 17 38% 33 75.72 0.0
03 14:15 Vrbl 7 16.09 Fair CLR 32 17 41% 32 75.72 0.0
03 13:55 Calm 16.09 Fair CLR 32 17 41% 32 75.74 0.0
03 13:35 SE 9 16.09 Fair CLR 32 17 41% 32 75.74 0.0
03 13:15 Vrbl 6 16.09 Fair CLR 32 18 43% 33 75.74 0.0
03 12:55 Calm 16.09 Fair CLR 31 17 43% 31 75.77 0.0
03 12:35 Vrbl 6 16.09 Fair CLR 31 17 43% 31 75.79 0.0
03 12:15 Vrbl 7 16.09 Fair CLR 30 17 46% 30 75.79 0.0
03 11:55 Vrbl 9 16.09 Fair CLR 30 17 46% 30 75.77 0.0
03 11:35 Vrbl 9 G 20 16.09 Fair CLR 30 17 46% 30 75.77 0.0
03 11:15 Calm 16.09 Fair CLR 29 17 48% 29 75.74 0.0
03 10:55 Vrbl 7 16.09 Fair CLR 28 17 51% 29 75.74 0.0
03 10:35 SW 9 16.09 Fair CLR 28 17 51% 29 75.74 0.0
03 10:15 SW 11 16.09 Fair CLR 28 17 51% 29 75.74 0.0
03 09:55 S 17 16.09 Fair CLR 27 17 54% 28 75.74 0.0
03 09:35 S 11 16.09 Fair CLR 26 17 58% 27 75.77 0.0
03 09:15 Vrbl 9 16.09 Fair CLR 26 17 58% 27 75.77 0.0
03 08:55 SE 9 16.09 Fair CLR 24 17 65% 25 75.77 0.0
03 08:35 SE 9 12.87 Fair CLR 22 16 69% 75.77 0.0
03 08:15 SE 11 12.87 Fair CLR 22 16 69% 75.77 0.0
03 07:55 E 7 11.27 Fair CLR 21 16 73% 75.77 0.0
03 07:35 E 9 16.09 Fair CLR 20 16 78% 75.77 0.0
03 07:15 NE 7 11.27 Fair CLR 20 16 78% 75.77 0.0
03 06:55 NE 9 16.09 Fair CLR 20 16 78% 75.77 0.0
03 06:35 Calm 16.09 Fair CLR 20 16 78% 75.77 0.0
03 06:15 Calm 16.09 Fair CLR 21 16 73% 75.74 0.0
03 05:55 Calm 16.09 Fair CLR 20 16 78% 75.74 0.0
03 05:35 NW 9 16.09 Fair CLR 22 16 69% 75.77 0.0
03 05:15 Calm 16.09 Fair CLR 22 16 69% 75.74 0.0
03 04:55 SW 9 16.09 Fair CLR 23 16 65% 75.77 0.0
03 04:35 Calm 16.09 Fair CLR 23 16 65% 75.74 0.0
03 04:15 Calm 16.09 Fair CLR 24 16 61% 25 75.74 0.0
03 03:55 S 11 16.09 Fair CLR 24 16 61% 25 75.74 0.0
03 03:35 S 9 16.09 Fair CLR 24 16 61% 25 75.74 0.0
03 03:15 S 9 16.09 Fair CLR 24 17 65% 25 75.74 0.0
03 02:55 SW 11 16.09 Fair CLR 24 16 61% 25 75.74 0.0
03 02:35 SW 9 16.09 Fair CLR 23 16 65% 75.74 0.0
03 02:15 Vrbl 7 16.09 Fair CLR 24 16 61% 25 75.74 0.0
03 01:55 SW 9 16.09 Fair CLR 24 16 61% 25 75.74 0.0
03 01:35 Calm 16.09 Fair CLR 24 16 61% 25 75.74 0.0
03 01:15 S 9 16.09 Fair CLR 24 16 61% 25 75.72 0.0
03 00:55 SE 9 16.09 Fair CLR 25 15 54% 26 75.72 0.0
03 00:35 S 7 16.09 Fair CLR 24 15 57% 25 75.72 0.0
03 00:15 SW 6 16.09 Fair CLR 23 15 61% 75.69 0.0
02 23:55 S 7 16.09 Fair CLR 25 15 54% 26 75.69 0.0
02 23:35 Calm 16.09 Fair CLR 26 15 51% 27 75.69 0.0
02 23:15 SE 11 16.09 Fair CLR 25 15 54% 26 75.67 0.0
02 22:55 S 13 12.87 Fair CLR 27 15 48% 27 75.67 0.0
02 22:35 S 13 16.09 Fair CLR 27 15 48% 27 75.69 0.0
02 22:15 SE 9 16.09 Fair CLR 28 15 45% 28 75.69 0.0
02 21:55 S 9 16.09 Fair CLR 29 16 45% 29 75.69 0.0
02 21:35 S 9 16.09 Fair CLR 29 17 48% 29 75.69 0.0
02 21:15 SW 6 16.09 Fair CLR 29 17 48% 29 75.67 0.0
02 20:55 E 7 16.09 Fair CLR 29 18 51% 30 75.64 0.0
02 20:35 E 7 12.87 Fair CLR 30 18 49% 31 75.64 0.0
02 20:15 E 7 12.87 Fair CLR 31 18 46% 32 75.62 0.0
02 19:55 E 6 16.09 Fair CLR 33 18 41% 34 75.62 0.0
02 19:35 E 6 16.09 Fair CLR 34 18 39% 35 75.64 0.0
02 19:15 Calm 16.09 Fair CLR 35 17 34% 36 75.64 0.0
02 18:55 Calm 16.09 Fair CLR 36 17 32% 37 75.64 0.0
02 18:35 SW 9 16.09 Fair CLR 37 17 31% 38 75.64 0.0
02 18:15 SW 13 16.09 Fair CLR 37 16 29% 37 75.67 0.0
02 17:55 SW 15 16.09 Fair CLR 37 16 29% 37 75.67 0.0
02 17:35 SW 17 G 28 16.09 Fair CLR 37 16 29% 37 75.67 0.0
02 17:15 S 15 G 30 16.09 Fair CLR 37 16 29% 37 75.67 0.0
02 16:55 S 19 16.09 Fair CLR 37 15 27% 37 75.69 0.0
02 16:35 S 19 G 30 16.09 Fair CLR 37 16 29% 37 75.69 0.0
02 16:15 Vrbl 11 G 28 16.09 Fair CLR 37 17 31% 38 75.72 0.0
02 15:55 S 22 16.09 Fair CLR 37 16 29% 37 75.74 0.0
02 15:35 SW 13 G 28 16.09 Fair CLR 37 17 31% 38 75.77 0.0
02 15:15 S 22 G 35 16.09 Fair CLR 36 16 30% 36 75.79 0.0
02 14:55 S 15 G 28 16.09 Fair CLR 36 17 32% 37 75.82 0.0
02 14:35 S 17 G 26 16.09 Fair CLR 36 17 32% 37 75.82 0.0
02 14:15 S 22 16.09 Fair CLR 35 17 34% 36 75.84 0.0
02 13:55 SW 15 G 24 16.09 Fair CLR 35 18 36% 36 75.84 0.0
02 13:35 S 19 16.09 Fair CLR 34 18 39% 35 75.87 0.0
02 13:15 S 15 16.09 Fair CLR 34 18 39% 35 75.9 0.0
02 12:55 S 19 16.09 Fair CLR 34 17 36% 35 75.92 0.0
02 12:35 S 15 16.09 Fair CLR 33 18 41% 34 75.92 0.0
02 12:15 S 17 16.09 Fair CLR 32 18 43% 33 75.95 0.0
02 11:55 S 13 G 22 16.09 Fair CLR 31 18 46% 32 75.95 0.0
02 11:35 S 13 16.09 Fair CLR 31 18 46% 32 75.95 0.0
02 11:15 E 7 16.09 Fair CLR 28 18 55% 29 75.97 0.0
02 10:55 Vrbl 7 16.09 Fair CLR 27 18 58% 28 75.97 0.0
02 10:35 SE 7 16.09 Fair CLR 26 18 61% 27 75.97 0.0
02 10:15 Calm 16.09 Fair CLR 24 17 65% 25 75.97 0.0
02 09:55 Calm 16.09 Fair CLR 24 18 69% 25 76 0.0
02 09:35 Calm 16.09 Fair CLR 23 18 74% 76 0.0
02 09:15 Calm 16.09 Fair CLR 22 18 78% 76 0.0
02 08:55 SE 7 14.48 Fair CLR 21 18 83% 76.02 0.0
02 08:35 E 6 16.09 Fair CLR 21 18 83% 76 0.0
02 08:15 Calm 12.87 Fair CLR 21 17 78% 76 0.0
Date Time (cdt) Wind (kph) Vis. (km) Weather Sky Cond. Air Dwpt Max. Min. Relative Humidity Wind Chill (°C) Heat Index (°C) altimeter (cm) sea level (mb) 1 hr 3 hr 6 hr
6 hour
Temperature (ºC) Pressure Precipitation (cm)